Time;durP1;ratioP1;P1;durP2;ratioP2;P2;SDS_P1;SDS_P2;PMS_P1;PMS_P2;Temp;Humidity;BMP_temperature;BMP_pressure;BME280_temperature;BME280_humidity;BME280_pressure;Samples;Min_cycle;Max_cycle;Signal;HPM_P1;HPM_P2
2021/01/19 00:02:07;;;;;;;9.43;4.80;;;;;;;2.95;92.13;101026.61;643166;221;24782;-74
2021/01/19 00:04:35;;;;;;;5.77;4.77;;;;;;;2.93;91.77;101034.39;631363;225;24841;-73
2021/01/19 00:07:03;;;;;;;8.73;4.70;;;;;;;2.99;91.82;101023.00;637123;222;24816;-74
2021/01/19 00:09:31;;;;;;;9.23;5.20;;;;;;;3.07;91.62;101018.29;626565;225;24951;-75
2021/01/19 00:11:59;;;;;;;8.40;5.30;;;;;;;3.17;90.56;101025.09;639892;221;32697;-73
2021/01/19 00:14:27;;;;;;;7.43;4.83;;;;;;;3.05;91.35;101020.56;629921;225;23690;-74
2021/01/19 00:16:54;;;;;;;7.37;5.17;;;;;;;2.90;91.43;101015.74;644756;221;24825;-74
2021/01/19 00:19:22;;;;;;;6.80;4.93;;;;;;;2.90;91.51;101020.42;639596;220;32274;-73
2021/01/19 00:21:50;;;;;;;6.33;4.63;;;;;;;3.06;91.74;101018.38;639299;221;24780;-73
2021/01/19 00:24:18;;;;;;;12.03;5.30;;;;;;;3.00;91.50;101014.84;641817;220;24815;-74
2021/01/19 00:26:46;;;;;;;6.43;4.60;;;;;;;2.91;91.97;101013.09;642444;220;24787;-74
2021/01/19 00:29:15;;;;;;;11.63;5.10;;;;;;;2.88;92.05;101022.24;649008;220;25124;-74
2021/01/19 00:31:42;;;;;;;7.83;4.90;;;;;;;3.03;91.72;101018.53;647073;220;24816;-74
2021/01/19 00:34:10;;;;;;;8.27;5.50;;;;;;;2.88;92.24;101022.24;642266;221;24791;-74
2021/01/19 00:36:38;;;;;;;8.73;5.53;;;;;;;2.68;92.53;101028.83;641815;222;24806;-75
2021/01/19 00:39:06;;;;;;;11.77;5.40;;;;;;;2.65;92.93;101021.24;643726;221;24786;-74
2021/01/19 00:41:34;;;;;;;9.03;5.50;;;;;;;2.88;92.68;101008.57;643269;222;26221;-74
2021/01/19 00:44:02;;;;;;;10.48;5.97;;;;;;;3.29;91.95;101007.77;634203;221;32727;-75
2021/01/19 00:46:30;;;;;;;10.80;5.83;;;;;;;2.82;91.62;100999.44;639604;221;23678;-74
2021/01/19 00:48:58;;;;;;;8.77;5.33;;;;;;;2.92;91.97;100998.05;643803;221;24797;-73
2021/01/19 00:51:26;;;;;;;17.63;5.23;;;;;;;2.91;92.05;100993.00;640962;221;24870;-73
2021/01/19 00:53:54;;;;;;;9.93;5.87;;;;;;;2.99;92.14;100994.73;644807;221;24799;-74
2021/01/19 00:56:22;;;;;;;8.47;4.97;;;;;;;2.97;91.87;100988.85;642291;221;25177;-73
2021/01/19 00:58:49;;;;;;;7.40;5.67;;;;;;;3.10;91.64;100986.03;638080;221;24846;-74
2021/01/19 01:01:17;;;;;;;6.80;5.00;;;;;;;2.92;91.65;100977.50;641032;221;24815;-73
2021/01/19 01:03:45;;;;;;;10.73;5.90;;;;;;;2.95;91.72;100982.48;639137;221;24815;-74
2021/01/19 01:06:17;;;;;;;5.60;5.00;;;;;;;3.09;91.68;100978.38;642724;221;24808;-74
2021/01/19 01:08:44;;;;;;;9.47;4.43;;;;;;;3.12;91.63;100970.54;642421;221;24783;-73
2021/01/19 01:11:12;;;;;;;6.33;4.70;;;;;;;3.06;91.53;100978.55;638068;221;30385;-73
2021/01/19 01:13:40;;;;;;;8.43;5.17;;;;;;;3.08;91.72;100970.30;642269;221;28004;-74
2021/01/19 01:16:08;;;;;;;12.03;6.10;;;;;;;2.96;92.24;100964.90;640650;221;25893;-73
2021/01/19 01:18:36;;;;;;;10.97;5.70;;;;;;;2.85;92.48;100965.06;640244;221;24794;-74
2021/01/19 01:21:04;;;;;;;8.50;5.60;;;;;;;2.90;92.11;100954.92;638492;221;27023;-74
2021/01/19 01:23:32;;;;;;;9.20;4.37;;;;;;;2.91;92.01;100960.88;639682;222;26104;-73
2021/01/19 01:26:00;;;;;;;12.73;5.75;;;;;;;2.93;91.59;100960.34;634747;222;33083;-73
2021/01/19 01:28:28;;;;;;;9.60;5.10;;;;;;;3.18;91.75;100940.20;644709;222;23680;-73
2021/01/19 01:30:56;;;;;;;7.90;5.43;;;;;;;3.32;91.18;100939.94;642573;221;30304;-74
2021/01/19 01:33:24;;;;;;;11.83;6.00;;;;;;;3.20;91.29;100942.23;640996;220;24810;-74
2021/01/19 01:35:51;;;;;;;7.17;4.60;;;;;;;3.31;90.55;100935.25;644699;221;24849;-75
2021/01/19 01:38:19;;;;;;;8.97;5.57;;;;;;;3.31;91.05;100934.42;646045;221;24871;-73
2021/01/19 01:40:47;;;;;;;8.47;4.90;;;;;;;3.48;90.16;100917.17;643676;221;24830;-73
2021/01/19 01:43:15;;;;;;;12.57;5.17;;;;;;;3.10;90.43;100911.97;643199;221;24787;-73
2021/01/19 01:45:43;;;;;;;6.87;4.70;;;;;;;3.03;91.59;100914.47;638752;221;24784;-73
2021/01/19 01:48:11;;;;;;;6.47;4.93;;;;;;;3.09;91.31;100909.00;641991;221;27957;-73
2021/01/19 01:50:39;;;;;;;6.53;4.10;;;;;;;3.01;91.34;100898.31;641646;221;24785;-73
2021/01/19 01:53:07;;;;;;;7.93;3.70;;;;;;;3.03;91.47;100897.77;639743;221;24791;-73
2021/01/19 01:55:35;;;;;;;7.30;4.30;;;;;;;3.09;90.66;100890.56;643555;221;24823;-76
2021/01/19 01:58:03;;;;;;;7.30;4.20;;;;;;;3.23;89.58;100880.83;637786;221;32741;-75
2021/01/19 02:00:31;;;;;;;5.90;3.73;;;;;;;3.20;89.60;100877.15;642859;221;23683;-76
2021/01/19 02:02:59;;;;;;;5.60;4.53;;;;;;;3.12;89.81;100872.89;639683;221;24798;-74
2021/01/19 02:05:27;;;;;;;5.43;4.03;;;;;;;3.14;89.80;100874.91;644151;222;27981;-73
2021/01/19 02:08:03;;;;;;;4.80;3.60;;;;;;;3.06;89.55;100874.48;642705;221;24804;-73
2021/01/19 02:10:35;;;;;;;6.70;3.93;;;;;;;2.94;89.54;100870.35;640475;221;24795;-73
2021/01/19 02:13:04;;;;;;;4.93;3.30;;;;;;;3.04;89.56;100853.18;641317;221;24794;-74
2021/01/19 02:15:32;;;;;;;4.57;3.43;;;;;;;3.16;89.00;100850.79;640091;221;24824;-73
2021/01/19 02:18:04;;;;;;;7.50;3.92;;;;;;;3.21;87.59;100837.23;632518;222;32880;-73
2021/01/19 02:20:48;;;;;;;5.70;3.50;;;;;;;3.45;87.53;100830.39;633653;221;32661;-75
2021/01/19 02:23:23;;;;;;;8.90;3.40;;;;;;;3.22;88.01;100831.17;632185;225;23701;-75
2021/01/19 02:26:04;;;;;;;5.93;3.23;;;;;;;3.21;88.14;100829.97;644096;222;24820;-77
2021/01/19 02:28:35;;;;;;;5.10;3.63;;;;;;;2.94;88.68;100829.70;641747;221;24823;-76
2021/01/19 02:31:13;;;;;;;7.37;4.07;;;;;;;3.01;88.54;100830.23;642176;221;24812;-73
2021/01/19 02:33:42;;;;;;;4.00;3.37;;;;;;;3.06;89.06;100829.52;639309;221;24810;-73
2021/01/19 02:36:12;;;;;;;4.17;2.97;;;;;;;3.13;88.77;100812.87;645069;221;24927;-73
2021/01/19 02:38:41;;;;;;;7.33;3.50;;;;;;;3.19;88.68;100807.39;646328;221;24810;-73
2021/01/19 02:41:08;;;;;;;9.37;3.77;;;;;;;2.91;88.95;100805.02;645342;219;24858;-73
2021/01/19 02:43:37;;;;;;;3.90;3.40;;;;;;;3.01;89.47;100811.78;641536;221;24798;-73
2021/01/19 02:46:05;;;;;;;7.10;4.17;;;;;;;2.72;89.68;100809.48;648135;220;24798;-73
2021/01/19 02:48:32;;;;;;;5.45;3.75;;;;;;;3.01;89.84;100805.36;637274;221;43541;-73
2021/01/19 02:51:00;;;;;;;7.07;4.20;;;;;;;2.74;89.71;100798.66;641979;220;23708;-73
2021/01/19 02:53:28;;;;;;;11.50;3.60;;;;;;;2.79;90.04;100801.81;640245;221;24797;-73
2021/01/19 02:55:56;;;;;;;9.90;4.30;;;;;;;2.86;89.87;100804.44;640063;221;24820;-73
2021/01/19 02:58:37;;;;;;;8.13;4.07;;;;;;;2.86;90.05;100799.30;644837;221;24795;-73
2021/01/19 03:01:05;;;;;;;6.37;4.30;;;;;;;2.72;90.20;100801.77;649728;221;24803;-74
2021/01/19 03:03:34;;;;;;;4.03;3.43;;;;;;;2.86;89.79;100808.75;643905;221;24780;-73
2021/01/19 03:06:03;;;;;;;4.97;3.40;;;;;;;2.70;90.04;100811.30;641521;221;24787;-74
2021/01/19 03:08:32;;;;;;;5.53;3.33;;;;;;;2.49;91.36;100811.94;642484;221;24800;-73
2021/01/19 03:11:00;;;;;;;8.40;3.10;;;;;;;2.54;91.69;100809.98;642630;221;24813;-73
2021/01/19 03:13:28;;;;;;;6.13;4.00;;;;;;;2.69;91.40;100799.37;647467;221;24817;-73
2021/01/19 03:16:06;;;;;;;5.80;3.73;;;;;;;2.62;90.76;100795.45;640409;221;24784;-73
2021/01/19 03:18:35;;;;;;;7.30;4.20;;;;;;;2.50;90.82;100793.52;638436;222;32607;-73
2021/01/19 03:21:04;;;;;;;6.67;3.97;;;;;;;2.45;91.64;100796.33;644123;221;23777;-73
2021/01/19 03:23:31;;;;;;;5.10;3.63;;;;;;;2.44;91.90;100797.70;644792;221;26001;-73
2021/01/19 03:25:59;;;;;;;5.00;3.67;;;;;;;2.38;92.17;100794.52;642168;221;24810;-73
2021/01/19 03:28:27;;;;;;;5.00;4.17;;;;;;;2.23;93.16;100794.02;638150;221;24799;-73
2021/01/19 03:30:55;;;;;;;8.08;4.70;;;;;;;2.47;92.74;100796.25;632475;221;32693;-73
2021/01/19 03:33:23;;;;;;;10.10;5.27;;;;;;;2.28;92.76;100786.94;639523;222;23714;-73
2021/01/19 03:35:51;;;;;;;6.08;4.33;;;;;;;2.11;93.37;100790.78;634810;222;32950;-75
2021/01/19 03:38:19;;;;;;;6.05;4.70;;;;;;;2.32;92.67;100788.42;643417;221;32926;-72
2021/01/19 03:40:47;;;;;;;6.75;4.75;;;;;;;2.19;92.68;100774.56;639192;221;32641;-73
2021/01/19 03:43:15;;;;;;;7.80;4.43;;;;;;;2.03;93.90;100772.40;638123;221;26872;-73
2021/01/19 03:45:43;;;;;;;8.40;4.33;;;;;;;2.22;93.38;100773.12;641949;222;24792;-73
2021/01/19 03:48:11;;;;;;;5.80;4.40;;;;;;;2.43;92.79;100762.67;641429;222;24812;-73
2021/01/19 03:50:39;;;;;;;6.77;4.57;;;;;;;2.35;92.12;100763.88;640251;221;24776;-73
2021/01/19 03:53:07;;;;;;;6.90;4.17;;;;;;;2.30;92.63;100772.73;648177;219;24806;-73
2021/01/19 03:55:35;;;;;;;6.97;4.10;;;;;;;2.33;92.94;100770.01;641343;221;24798;-73
2021/01/19 03:58:02;;;;;;;8.07;4.30;;;;;;;2.23;93.15;100770.92;647660;220;24798;-73
2021/01/19 04:00:30;;;;;;;5.57;4.23;;;;;;;2.11;93.57;100766.41;642993;221;24801;-73
2021/01/19 04:02:58;;;;;;;9.60;4.77;;;;;;;2.21;93.21;100759.91;639271;221;24772;-73
2021/01/19 04:05:26;;;;;;;7.27;5.20;;;;;;;2.38;93.31;100756.47;644909;220;24813;-73
2021/01/19 04:07:54;;;;;;;6.97;4.77;;;;;;;2.31;92.49;100761.11;645870;220;24791;-74
2021/01/19 04:10:22;;;;;;;8.30;4.10;;;;;;;2.30;92.85;100762.47;649537;220;25050;-74
2021/01/19 04:12:50;;;;;;;9.05;4.85;;;;;;;2.45;92.09;100764.70;637293;222;32680;-73
2021/01/19 04:15:18;;;;;;;5.47;3.97;;;;;;;2.15;93.04;100760.23;648582;221;26922;-73
2021/01/19 04:17:45;;;;;;;4.53;3.70;;;;;;;2.05;93.51;100758.58;648414;221;24856;-73
2021/01/19 04:20:13;;;;;;;5.93;4.13;;;;;;;2.05;93.73;100766.28;642836;221;24750;-73
2021/01/19 04:22:41;;;;;;;5.40;4.17;;;;;;;1.97;93.92;100761.14;640461;221;24789;-73
2021/01/19 04:25:10;;;;;;;10.40;6.40;;;;;;;1.96;94.07;100764.62;642691;221;24791;-73
2021/01/19 04:27:38;;;;;;;6.00;3.60;;;;;;;1.92;93.73;100757.98;639420;222;24817;-73
2021/01/19 04:30:08;;;;;;;6.33;3.70;;;;;;;2.07;93.61;100754.66;644111;221;24797;-73
2021/01/19 04:32:36;;;;;;;6.13;3.90;;;;;;;1.97;93.42;100747.03;640214;222;24813;-73
2021/01/19 04:35:04;;;;;;;8.63;4.40;;;;;;;2.11;93.10;100734.34;639489;221;24829;-73
2021/01/19 04:37:32;;;;;;;7.53;4.53;;;;;;;2.21;93.40;100726.55;638234;222;24794;-73
2021/01/19 04:40:04;;;;;;;5.87;3.70;;;;;;;2.17;92.67;100721.67;643625;221;24806;-73
2021/01/19 04:42:28;;;;;;;4.90;3.80;;;;;;;2.07;92.97;100711.05;646942;221;24870;-73
2021/01/19 04:44:56;;;;;;;4.00;3.40;;;;;;;1.99;92.78;100711.91;640872;221;24817;-73
2021/01/19 04:47:24;;;;;;;6.30;3.47;;;;;;;1.97;92.63;100707.28;642485;222;24797;-73
2021/01/19 04:49:52;;;;;;;6.07;3.73;;;;;;;1.85;92.76;100706.65;644224;221;24777;-72
2021/01/19 04:52:20;;;;;;;5.20;3.20;;;;;;;1.90;92.96;100703.39;647399;221;24788;-73
2021/01/19 04:54:53;;;;;;;9.80;3.63;;;;;;;1.89;92.55;100698.72;639395;222;24823;-74
2021/01/19 04:57:21;;;;;;;4.97;3.57;;;;;;;1.93;91.98;100686.55;639534;221;24834;-73
2021/01/19 04:59:50;;;;;;;4.10;2.57;;;;;;;1.97;91.46;100691.89;646784;221;26997;-73
2021/01/19 05:02:35;;;;;;;4.30;3.10;;;;;;;2.08;91.34;100682.75;639173;222;26448;-73
2021/01/19 05:05:32;;;;;;;4.70;3.20;;;;;;;2.17;90.64;100679.34;640435;219;32759;-75
2021/01/19 05:08:11;;;;;;;3.30;2.87;;;;;;;2.15;90.72;100683.27;647894;220;23692;-75
2021/01/19 05:10:39;;;;;;;4.03;2.53;;;;;;;2.12;90.26;100668.05;646855;221;25895;-73
2021/01/19 05:13:08;;;;;;;4.93;2.80;;;;;;;2.05;90.48;100662.84;640826;221;24842;-74
2021/01/19 05:15:37;;;;;;;4.40;3.17;;;;;;;1.92;90.38;100663.93;641847;221;24818;-73
2021/01/19 05:18:05;;;;;;;3.73;2.50;;;;;;;1.88;90.86;100659.05;641363;221;24793;-73
2021/01/19 05:20:33;;;;;;;3.93;2.87;;;;;;;1.84;90.98;100659.66;646154;220;24892;-73
2021/01/19 05:23:01;;;;;;;5.10;3.13;;;;;;;2.08;90.56;100653.70;644250;221;24923;-73
2021/01/19 05:25:29;;;;;;;4.20;2.67;;;;;;;2.07;90.12;100640.05;643664;221;24799;-73
2021/01/19 05:27:57;;;;;;;5.17;2.53;;;;;;;1.96;90.42;100640.23;638895;221;25085;-73
2021/01/19 05:30:25;;;;;;;5.07;2.63;;;;;;;1.98;90.52;100632.86;640566;221;24812;-73
2021/01/19 05:32:53;;;;;;;3.73;2.33;;;;;;;1.91;90.32;100626.83;638839;222;24804;-73
2021/01/19 05:35:22;;;;;;;4.80;2.80;;;;;;;1.99;90.21;100622.14;642792;221;24789;-73
2021/01/19 05:37:57;;;;;;;2.70;2.00;;;;;;;1.95;89.89;100607.80;638546;221;27998;-75
2021/01/19 05:40:25;;;;;;;4.70;3.20;;;;;;;1.81;90.74;100614.10;640770;221;24796;-76
2021/01/19 05:42:53;;;;;;;6.90;3.63;;;;;;;1.95;90.54;100606.52;640180;221;24812;-75
2021/01/19 05:45:21;;;;;;;5.37;3.10;;;;;;;1.88;90.50;100612.89;640565;221;24770;-76
2021/01/19 05:47:49;;;;;;;6.60;3.00;;;;;;;1.87;90.82;100606.11;639554;221;24796;-76
2021/01/19 05:50:17;;;;;;;6.83;3.53;;;;;;;1.89;90.54;100603.83;637998;221;25889;-75
2021/01/19 05:52:45;;;;;;;4.83;2.73;;;;;;;1.83;90.54;100600.74;640999;222;24797;-74
2021/01/19 05:55:13;;;;;;;4.13;2.37;;;;;;;1.86;90.45;100591.63;643174;221;24796;-75
2021/01/19 05:57:41;;;;;;;5.60;3.00;;;;;;;1.91;90.29;100588.36;640153;221;24804;-73
2021/01/19 06:00:11;;;;;;;3.40;2.55;;;;;;;1.93;90.28;100587.82;627149;225;43903;-73
2021/01/19 06:02:40;;;;;;;5.60;3.07;;;;;;;1.89;90.29;100592.29;645342;221;23721;-73
2021/01/19 06:05:09;;;;;;;5.17;2.87;;;;;;;1.91;90.14;100594.77;638821;222;24789;-73
2021/01/19 06:07:37;;;;;;;3.93;2.57;;;;;;;1.71;90.71;100594.54;630738;225;24840;-73
2021/01/19 06:10:09;;;;;;;4.63;2.80;;;;;;;1.74;91.17;100604.62;639213;221;24838;-73
2021/01/19 06:12:37;;;;;;;6.47;3.43;;;;;;;1.86;90.81;100597.59;627652;226;24837;-75
2021/01/19 06:15:07;;;;;;;4.30;3.17;;;;;;;1.67;91.15;100587.44;647614;219;25071;-76
2021/01/19 06:17:35;;;;;;;6.10;3.13;;;;;;;1.73;91.17;100592.27;638681;220;24810;-76
2021/01/19 06:20:03;;;;;;;4.57;2.90;;;;;;;1.84;90.79;100590.44;634117;225;24865;-77
2021/01/19 06:22:31;;;;;;;4.40;2.60;;;;;;;2.01;90.29;100588.26;644016;221;24801;-74
2021/01/19 06:24:59;;;;;;;4.67;2.47;;;;;;;1.77;90.73;100586.06;643706;221;24824;-73
2021/01/19 06:27:28;;;;;;;5.17;3.20;;;;;;;1.87;90.42;100583.86;639281;221;24783;-73
2021/01/19 06:30:04;;;;;;;5.20;3.03;;;;;;;1.77;90.63;100586.06;646554;220;26970;-74
2021/01/19 06:32:32;;;;;;;10.10;3.50;;;;;;;1.69;91.37;100581.80;642206;221;24796;-75
2021/01/19 06:35:10;;;;;;;5.27;3.10;;;;;;;1.69;91.44;100581.80;639854;222;27023;-76
2021/01/19 06:37:38;;;;;;;6.00;2.77;;;;;;;1.73;91.71;100575.60;639767;222;24795;-73
2021/01/19 06:40:07;;;;;;;3.83;3.03;;;;;;;1.71;91.59;100570.19;639136;221;24786;-73
2021/01/19 06:42:35;;;;;;;4.67;2.90;;;;;;;1.78;91.36;100565.92;641773;221;24800;-73
2021/01/19 06:45:03;;;;;;;4.30;2.90;;;;;;;1.72;91.40;100558.56;641516;221;24789;-74
2021/01/19 06:47:31;;;;;;;3.90;2.83;;;;;;;1.73;91.23;100547.41;638338;222;24810;-74
2021/01/19 06:49:59;;;;;;;6.77;2.90;;;;;;;1.73;91.48;100559.39;642900;221;30544;-73
2021/01/19 06:52:27;;;;;;;5.00;2.70;;;;;;;1.81;91.04;100552.56;641906;221;24794;-73
2021/01/19 06:55:21;;;;;;;6.50;3.00;;;;;;;1.87;90.90;100551.80;647478;221;24820;-73
2021/01/19 06:58:00;;;;;;;4.60;2.47;;;;;;;1.88;91.05;100540.63;637398;221;24815;-75
2021/01/19 07:00:28;;;;;;;5.93;3.30;;;;;;;1.82;90.95;100536.27;642600;221;24800;-75
2021/01/19 07:02:55;;;;;;;5.37;2.50;;;;;;;2.01;90.63;100540.35;648025;221;24812;-74
2021/01/19 07:05:23;;;;;;;3.10;2.50;;;;;;;1.88;90.70;100542.37;640337;222;24776;-73
2021/01/19 07:07:54;;;;;;;5.50;2.73;;;;;;;1.76;91.19;100534.41;638772;221;24800;-73
2021/01/19 07:10:22;;;;;;;9.33;3.90;;;;;;;1.82;91.11;100535.81;643634;221;24802;-73
2021/01/19 07:12:59;;;;;;;2.73;2.30;;;;;;;1.78;90.95;100536.44;643445;221;24808;-75
2021/01/19 07:15:41;;;;;;;4.23;2.43;;;;;;;1.79;91.02;100522.70;641657;221;24815;-75
2021/01/19 07:18:17;;;;;;;4.40;2.73;;;;;;;1.92;90.96;100523.34;646927;221;24919;-75
2021/01/19 07:21:02;;;;;;;5.22;2.60;;;;;;;1.96;90.97;100515.39;627167;221;33153;-76
2021/01/19 07:23:35;;;;;;;4.70;2.90;;;;;;;1.93;90.71;100517.30;644793;222;23675;-75
2021/01/19 07:26:03;;;;;;;7.83;2.50;;;;;;;1.93;90.55;100512.99;641763;221;25109;-73
2021/01/19 07:28:31;;;;;;;4.20;2.67;;;;;;;1.94;90.86;100515.93;647283;220;24760;-74
2021/01/19 07:30:59;;;;;;;4.90;2.60;;;;;;;1.86;90.82;100507.02;641243;220;24793;-74
2021/01/19 07:33:27;;;;;;;6.37;2.80;;;;;;;1.97;90.69;100513.64;639656;220;24897;-73
2021/01/19 07:35:55;;;;;;;3.00;2.70;;;;;;;2.06;90.80;100510.59;644129;220;26988;-73
2021/01/19 07:38:23;;;;;;;6.43;3.10;;;;;;;2.02;90.56;100502.70;639563;221;24816;-73
2021/01/19 07:40:51;;;;;;;4.17;2.70;;;;;;;2.04;90.59;100495.75;641161;221;24783;-73
2021/01/19 07:43:19;;;;;;;8.63;6.03;;;;;;;2.00;90.56;100489.97;644185;221;25123;-73
2021/01/19 07:45:52;;;;;;;6.50;3.40;;;;;;;1.89;90.87;100482.02;643315;220;24866;-74
2021/01/19 07:48:29;;;;;;;5.93;2.80;;;;;;;2.08;90.48;100484.41;640364;222;24768;-74
2021/01/19 07:50:57;;;;;;;8.20;3.70;;;;;;;2.05;90.38;100485.86;639900;221;24805;-74
2021/01/19 07:53:25;;;;;;;6.10;3.40;;;;;;;2.09;90.27;100483.48;644418;222;24803;-74
2021/01/19 07:55:53;;;;;;;4.73;3.70;;;;;;;2.10;89.93;100477.44;631150;225;24862;-75
2021/01/19 07:58:21;;;;;;;7.70;3.97;;;;;;;2.21;89.76;100467.87;632644;225;24840;-74
2021/01/19 08:00:49;;;;;;;7.37;2.93;;;;;;;2.11;89.84;100468.01;643154;221;24791;-75
2021/01/19 08:03:17;;;;;;;4.93;2.47;;;;;;;2.00;89.85;100466.88;641548;221;27017;-74
2021/01/19 08:05:45;;;;;;;3.63;2.40;;;;;;;2.02;90.24;100475.77;626988;226;24893;-73
2021/01/19 08:08:15;;;;;;;4.20;2.40;;;;;;;2.16;90.20;100464.30;643055;221;24787;-74
2021/01/19 08:10:53;;;;;;;5.83;2.27;;;;;;;2.30;89.75;100466.91;637703;221;24821;-74
2021/01/19 08:13:21;;;;;;;7.00;2.10;;;;;;;2.14;89.81;100471.25;634228;225;24850;-74
2021/01/19 08:16:01;;;;;;;3.95;2.30;;;;;;;2.47;89.54;100459.54;632754;225;32695;-74
2021/01/19 08:18:36;;;;;;;4.47;2.37;;;;;;;2.35;88.81;100444.37;638733;225;23749;-73
2021/01/19 08:21:06;;;;;;;6.03;2.60;;;;;;;2.35;88.94;100448.69;639617;222;24812;-74
2021/01/19 08:23:34;;;;;;;5.33;2.57;;;;;;;2.42;89.28;100437.63;632680;226;24838;-74
2021/01/19 08:26:04;;;;;;;3.80;2.80;;;;;;;2.20;90.05;100452.11;630331;225;24840;-74
2021/01/19 08:28:33;;;;;;;5.40;2.17;;;;;;;2.31;89.80;100451.89;632157;226;24844;-73
2021/01/19 08:31:01;;;;;;;5.50;2.40;;;;;;;2.29;89.60;100424.20;640008;220;24806;-74
2021/01/19 08:33:29;;;;;;;4.63;2.27;;;;;;;2.35;89.61;100425.12;627870;225;24842;-74
2021/01/19 08:35:57;;;;;;;5.63;2.27;;;;;;;2.31;89.23;100423.66;627127;225;24866;-74
2021/01/19 08:38:25;;;;;;;6.37;2.30;;;;;;;2.44;88.83;100417.83;636135;223;24934;-74
2021/01/19 08:40:53;;;;;;;4.12;2.17;;;;;;;2.41;88.62;100411.14;623211;224;32948;-74
2021/01/19 08:43:22;;;;;;;5.20;2.00;;;;;;;2.37;88.94;100403.22;643410;221;23731;-73
2021/01/19 08:45:51;;;;;;;4.50;2.00;;;;;;;2.47;88.69;100401.78;633825;224;29285;-72
2021/01/19 08:48:19;;;;;;;5.00;1.87;;;;;;;2.30;89.00;100400.66;630973;225;24809;-72
2021/01/19 08:50:47;;;;;;;2.90;1.90;;;;;;;2.17;89.36;100404.38;640377;220;24774;-75
2021/01/19 08:53:16;;;;;;;4.10;2.10;;;;;;;2.31;89.61;100403.59;628905;225;25105;-73
2021/01/19 08:55:44;;;;;;;5.50;2.50;;;;;;;2.31;88.78;100393.33;640910;221;25015;-74
2021/01/19 08:58:19;;;;;;;5.30;1.87;;;;;;;2.39;88.78;100383.42;629768;225;27154;-74
2021/01/19 09:00:47;;;;;;;5.20;2.20;;;;;;;2.40;88.55;100381.26;634874;221;24865;-75
2021/01/19 09:03:15;;;;;;;5.17;2.27;;;;;;;2.42;88.18;100383.73;646757;221;24775;-74
2021/01/19 09:05:43;;;;;;;5.23;2.17;;;;;;;2.29;88.67;100385.72;626540;226;24833;-73
2021/01/19 09:08:13;;;;;;;5.30;2.10;;;;;;;2.22;89.33;100386.97;632917;225;24830;-73
2021/01/19 09:10:41;;;;;;;6.23;2.20;;;;;;;2.41;88.37;100379.06;640663;221;32696;-75
2021/01/19 09:13:09;;;;;;;2.27;1.80;;;;;;;2.25;88.78;100384.67;628439;226;24832;-77
2021/01/19 09:15:39;;;;;;;2.23;1.83;;;;;;;2.34;88.40;100374.72;642978;221;24790;-75
2021/01/19 09:18:10;;;;;;;5.03;2.10;;;;;;;2.48;88.28;100383.36;639114;221;25832;-75
2021/01/19 09:20:38;;;;;;;8.67;2.30;;;;;;;2.57;88.05;100376.42;633053;225;24843;-73
2021/01/19 09:23:07;;;;;;;4.50;2.10;;;;;;;2.41;88.12;100370.53;640915;221;24795;-73
2021/01/19 09:25:36;;;;;;;3.10;1.82;;;;;;;2.42;88.08;100371.72;623472;225;33111;-76
2021/01/19 09:28:05;;;;;;;4.77;1.93;;;;;;;2.56;88.23;100366.61;642655;221;23685;-73
2021/01/19 09:30:35;;;;;;;3.43;2.20;;;;;;;2.63;87.28;100359.36;644458;221;24811;-73
2021/01/19 09:33:04;;;;;;;3.20;1.73;;;;;;;2.65;87.47;100348.53;632233;225;24824;-74
2021/01/19 09:35:32;;;;;;;5.20;2.30;;;;;;;2.56;87.82;100334.52;643847;221;25985;-73
2021/01/19 09:38:00;;;;;;;4.83;2.10;;;;;;;2.64;87.66;100339.18;627611;225;24861;-74
2021/01/19 09:40:31;;;;;;;5.33;2.20;;;;;;;2.68;87.03;100339.39;640817;224;32203;-73
2021/01/19 09:42:59;;;;;;;6.40;2.60;;;;;;;2.54;88.02;100349.66;644365;220;24903;-73
2021/01/19 09:45:27;;;;;;;7.53;2.50;;;;;;;2.50;88.04;100354.58;642596;221;24809;-73
2021/01/19 09:47:54;;;;;;;3.87;2.17;;;;;;;2.45;88.21;100343.77;643951;221;24867;-75
2021/01/19 09:50:26;;;;;;;7.55;2.50;;;;;;;2.72;87.54;100343.41;637080;220;32767;-73
2021/01/19 09:52:56;;;;;;;7.60;3.30;;;;;;;2.77;87.09;100339.27;631251;225;33101;-76
2021/01/19 09:55:24;;;;;;;7.20;3.37;;;;;;;2.70;86.85;100340.12;635495;225;25863;-76
2021/01/19 09:57:58;;;;;;;6.57;3.00;;;;;;;2.74;86.88;100340.75;627875;225;24916;-75
2021/01/19 10:00:29;;;;;;;4.40;2.33;;;;;;;2.71;86.82;100337.91;641379;221;24822;-75
2021/01/19 10:02:57;;;;;;;4.50;2.70;;;;;;;2.72;87.16;100338.28;629145;225;24882;-74
2021/01/19 10:05:25;;;;;;;4.03;2.42;;;;;;;2.60;87.32;100340.29;635012;221;32704;-74
2021/01/19 10:07:54;;;;;;;6.13;2.97;;;;;;;2.94;87.35;100334.76;637961;224;23702;-74
2021/01/19 10:10:21;;;;;;;6.57;2.63;;;;;;;2.94;86.32;100321.91;634158;225;25322;-73
2021/01/19 10:12:49;;;;;;;4.67;2.17;;;;;;;2.80;86.70;100321.93;648095;220;24822;-73
2021/01/19 10:15:17;;;;;;;3.27;2.23;;;;;;;2.83;86.85;100323.05;645738;221;24812;-73
2021/01/19 10:17:45;;;;;;;3.90;2.50;;;;;;;2.81;86.20;100319.73;636720;221;26906;-74
2021/01/19 10:20:14;;;;;;;5.50;2.33;;;;;;;2.87;86.64;100307.81;627301;225;24872;-74
2021/01/19 10:22:42;;;;;;;4.17;2.47;;;;;;;3.09;86.20;100294.91;646526;221;24772;-73
2021/01/19 10:25:10;;;;;;;4.63;2.30;;;;;;;3.06;85.70;100305.39;631919;225;24820;-73
2021/01/19 10:27:40;;;;;;;4.70;2.50;;;;;;;3.07;85.98;100303.19;645863;221;24789;-73
2021/01/19 10:30:09;;;;;;;4.00;2.90;;;;;;;2.88;86.03;100303.05;627868;225;24890;-73
2021/01/19 10:32:53;;;;;;;2.70;2.40;;;;;;;2.96;86.32;100288.00;646215;221;24796;-73
2021/01/19 10:35:26;;;;;;;6.43;2.13;;;;;;;2.94;86.29;100288.98;640657;221;24775;-73
2021/01/19 10:37:54;;;;;;;4.95;2.60;;;;;;;2.96;85.73;100285.43;634215;225;33066;-74
2021/01/19 10:40:22;;;;;;;6.83;2.73;;;;;;;3.06;86.07;100275.84;648620;220;23672;-73
2021/01/19 10:42:50;;;;;;;2.93;2.10;;;;;;;2.97;86.17;100285.80;631570;225;24822;-74
2021/01/19 10:45:24;;;;;;;2.97;2.00;;;;;;;3.03;85.90;100278.61;643225;221;24775;-75
2021/01/19 10:47:52;;;;;;;9.90;1.93;;;;;;;3.05;86.15;100266.49;631723;225;24832;-76
2021/01/19 10:50:20;;;;;;;4.73;2.20;;;;;;;3.05;86.66;100270.34;646400;220;24772;-75
2021/01/19 10:52:54;;;;;;;2.27;2.03;;;;;;;3.02;86.18;100258.98;629352;226;24834;-74
2021/01/19 10:55:22;;;;;;;3.20;2.10;;;;;;;2.99;86.60;100261.29;648491;221;24781;-73
2021/01/19 10:57:52;;;;;;;9.97;2.70;;;;;;;3.01;86.86;100255.59;641646;221;24776;-73
2021/01/19 11:00:21;;;;;;;5.07;2.20;;;;;;;2.97;86.78;100249.00;642371;221;24788;-74
2021/01/19 11:02:49;;;;;;;5.47;2.13;;;;;;;3.19;86.80;100245.89;642551;221;24784;-73
2021/01/19 11:05:17;;;;;;;4.53;2.23;;;;;;;3.39;86.29;100253.64;641585;220;24794;-75
2021/01/19 11:07:45;;;;;;;5.70;2.80;;;;;;;3.00;86.73;100236.42;643076;221;30072;-74
2021/01/19 11:10:14;;;;;;;4.63;2.57;;;;;;;2.96;87.29;100249.92;642898;221;24782;-74
2021/01/19 11:12:42;;;;;;;4.17;2.20;;;;;;;3.06;87.93;100260.43;643029;220;24800;-73
2021/01/19 11:15:10;;;;;;;4.53;2.10;;;;;;;2.98;88.25;100254.50;645897;220;24775;-73
2021/01/19 11:17:38;;;;;;;6.70;2.93;;;;;;;2.95;88.44;100254.67;641128;221;24790;-76
2021/01/19 11:20:07;;;;;;;4.60;2.40;;;;;;;2.86;88.37;100252.23;639511;221;27956;-74
2021/01/19 11:22:35;;;;;;;10.50;4.03;;;;;;;2.76;88.94;100258.84;646197;221;24786;-73
2021/01/19 11:25:03;;;;;;;3.27;2.40;;;;;;;2.80;89.37;100258.19;642115;221;24782;-73
2021/01/19 11:27:31;;;;;;;4.60;2.10;;;;;;;2.83;89.76;100260.59;645869;221;24791;-73
2021/01/19 11:29:59;;;;;;;3.85;2.60;;;;;;;2.78;89.01;100251.88;634212;221;32651;-73
2021/01/19 11:32:27;;;;;;;9.77;3.10;;;;;;;2.77;90.15;100246.38;640236;222;23656;-74
2021/01/19 11:34:55;;;;;;;8.83;2.80;;;;;;;2.77;90.89;100245.55;644005;221;24778;-74
2021/01/19 11:37:23;;;;;;;4.90;3.03;;;;;;;2.80;91.57;100234.63;648096;221;24770;-74
2021/01/19 11:39:51;;;;;;;5.60;2.63;;;;;;;2.80;91.81;100232.05;643273;222;24786;-75
2021/01/19 11:42:19;;;;;;;5.50;3.00;;;;;;;2.98;92.36;100233.50;640876;221;24976;-73
2021/01/19 11:44:47;;;;;;;5.95;2.90;;;;;;;2.93;92.46;100223.95;635542;222;43760;-73